Time;durP1;ratioP1;P1;durP2;ratioP2;P2;SDS_P1;SDS_P2;PMS_P1;PMS_P2;Temp;Humidity;BMP_temperature;BMP_pressure;BME280_temperature;BME280_humidity;BME280_pressure;Samples;Min_cycle;Max_cycle;Signal;HPM_P1;HPM_P2
2022/06/17 00:01:15;;;;;;;3.33;3.13;;;;;;;16.64;71.31;96993.53;5025420;28;20429;-74
2022/06/17 00:03:42;;;;;;;3.93;2.83;;;;;;;16.52;71.27;96965.81;5049713;28;20429;-74
2022/06/17 00:06:12;;;;;;;6.83;3.60;;;;;;;16.49;68.27;96995.09;5021717;28;20929;-74
2022/06/17 00:08:42;;;;;;;4.77;3.60;;;;;;;16.04;69.65;96967.03;5029743;28;20430;-73
2022/06/17 00:11:15;;;;;;;3.90;3.60;;;;;;;16.17;72.06;96991.72;5043944;28;20819;-74
2022/06/17 00:13:42;;;;;;;6.30;3.80;;;;;;;16.17;74.27;96987.16;5009887;28;20516;-74
2022/06/17 00:16:14;;;;;;;3.87;3.47;;;;;;;16.31;74.71;96989.38;5037335;28;20449;-74
2022/06/17 00:18:41;;;;;;;3.67;3.23;;;;;;;15.87;77.36;96928.13;5049471;28;20525;-74
2022/06/17 00:21:23;;;;;;;3.90;3.60;;;;;;;16.24;76.92;96983.88;5034826;28;20465;-74
2022/06/17 00:23:50;;;;;;;3.27;3.07;;;;;;;16.24;76.32;96967.84;5031162;28;20455;-74
2022/06/17 00:26:18;;;;;;;4.40;3.37;;;;;;;16.40;75.14;96967.81;5029757;28;20438;-74
2022/06/17 00:28:45;;;;;;;4.90;3.40;;;;;;;16.14;76.86;96947.03;5039318;28;20425;-74
2022/06/17 00:31:11;;;;;;;4.37;3.97;;;;;;;15.90;81.80;96921.34;5013047;28;20490;-74
2022/06/17 00:33:38;;;;;;;7.67;3.37;;;;;;;15.82;82.95;96935.63;5029483;28;20448;-74
2022/06/17 00:36:09;;;;;;;3.43;3.23;;;;;;;16.05;82.48;96949.13;5009770;28;20451;-74
2022/06/17 00:38:36;;;;;;;3.50;3.30;;;;;;;15.52;82.94;96938.69;5024598;28;20527;-74
2022/06/17 00:41:31;;;;;;;4.73;3.40;;;;;;;15.61;83.37;96947.31;5049266;28;20426;-74
2022/06/17 00:44:06;;;;;;;3.70;3.40;;;;;;;15.70;83.93;96957.81;5033188;28;20926;-74
2022/06/17 00:46:33;;;;;;;4.03;3.70;;;;;;;15.82;83.44;96978.28;5012225;28;20540;-74
2022/06/17 00:49:10;;;;;;;4.27;3.87;;;;;;;15.84;82.84;96979.50;5029058;28;20465;-74
2022/06/17 00:52:00;;;;;;;3.10;2.90;;;;;;;15.69;82.28;96977.59;5024987;28;20465;-74
2022/06/17 00:54:33;;;;;;;3.37;3.07;;;;;;;15.53;82.39;96982.09;5049181;28;20446;-74
2022/06/17 00:57:00;;;;;;;3.47;3.27;;;;;;;15.65;81.56;96988.19;5048927;28;20476;-74
2022/06/17 00:59:27;;;;;;;3.27;3.03;;;;;;;15.55;83.34;96964.66;5032522;28;20465;-74
2022/06/17 01:02:04;;;;;;;3.60;3.30;;;;;;;15.69;83.33;96976.81;5048886;28;20429;-74
2022/06/17 01:04:40;;;;;;;3.43;3.13;;;;;;;15.62;82.95;96959.53;5049082;28;20451;-74
2022/06/17 01:07:14;;;;;;;3.30;3.10;;;;;;;15.50;84.16;96956.16;5032410;28;20511;-74
2022/06/17 01:10:01;;;;;;;3.63;3.33;;;;;;;15.27;89.92;96985.22;5032136;28;20504;-74
2022/06/17 01:12:35;;;;;;;3.77;3.40;;;;;;;15.30;88.72;96988.00;5048820;28;20452;-74
2022/06/17 01:15:03;;;;;;;3.37;3.13;;;;;;;15.35;87.98;96986.97;5048812;28;20537;-74
2022/06/17 01:17:37;;;;;;;3.13;2.90;;;;;;;15.48;85.82;96972.47;5050299;28;20516;-74
2022/06/17 01:20:08;;;;;;;3.83;3.53;;;;;;;15.19;87.53;97000.25;5048786;28;20469;-74
2022/06/17 01:22:39;;;;;;;3.50;3.27;;;;;;;15.10;93.43;97012.94;5048389;28;21260;-74
2022/06/17 01:25:18;;;;;;;3.43;3.13;;;;;;;15.08;93.21;97012.47;5012618;28;20470;-74
2022/06/17 01:27:49;;;;;;;3.57;3.37;;;;;;;15.16;92.08;97008.16;5028939;28;20446;-74
2022/06/17 01:30:25;;;;;;;4.50;3.87;;;;;;;15.12;90.22;96989.41;5035351;28;20794;-74
2022/06/17 01:33:11;;;;;;;3.40;3.10;;;;;;;14.93;90.70;96970.59;5050091;28;20792;-74
2022/06/17 01:35:53;;;;;;;5.70;4.03;;;;;;;14.87;93.29;96991.38;5034153;28;20981;-74
2022/06/17 01:38:22;;;;;;;3.60;3.27;;;;;;;15.02;92.24;96963.25;5029008;28;20438;-74
2022/06/17 01:40:50;;;;;;;3.77;3.43;;;;;;;15.17;91.73;96985.72;5012397;28;20446;-74
2022/06/17 01:43:20;;;;;;;5.50;3.70;;;;;;;14.83;94.73;96971.88;5023030;28;20448;-74
2022/06/17 01:45:58;;;;;;;3.77;3.50;;;;;;;14.84;95.61;96970.75;5048496;28;20437;-74
2022/06/17 01:48:29;;;;;;;3.43;3.23;;;;;;;14.94;95.32;96982.78;5048617;28;20473;-74
2022/06/17 01:50:58;;;;;;;3.80;3.50;;;;;;;14.69;98.01;96998.84;5032414;28;20473;-74
2022/06/17 01:53:29;;;;;;;4.47;3.30;;;;;;;14.61;99.42;96991.75;5048601;28;20436;-74
2022/06/17 01:56:02;;;;;;;4.33;3.20;;;;;;;14.42;100.00;96987.00;5031989;28;20441;-74
2022/06/17 01:58:36;;;;;;;3.37;3.10;;;;;;;14.32;100.00;96968.03;5033449;28;20467;-74
2022/06/17 02:01:05;;;;;;;4.07;3.40;;;;;;;14.56;100.00;96992.00;5052145;28;20520;-74
2022/06/17 02:03:37;;;;;;;3.87;3.20;;;;;;;14.49;100.00;96983.78;5035545;28;20449;-74
2022/06/17 02:06:18;;;;;;;4.23;3.60;;;;;;;14.40;100.00;96980.44;5052163;28;20425;-73
2022/06/17 02:08:45;;;;;;;4.13;3.83;;;;;;;14.35;100.00;96975.34;5035396;28;20445;-73
2022/06/17 02:11:14;;;;;;;3.50;3.30;;;;;;;14.18;100.00;96963.06;5035603;28;20468;-74
2022/06/17 02:13:47;;;;;;;4.70;4.30;;;;;;;14.19;100.00;96981.34;5025047;28;20551;-73
2022/06/17 02:16:26;;;;;;;4.33;3.50;;;;;;;14.06;100.00;96966.50;5033542;28;20447;-73
2022/06/17 02:19:19;;;;;;;7.80;3.30;;;;;;;13.80;100.00;96960.72;5053258;28;20457;-73
2022/06/17 02:21:52;;;;;;;3.57;3.27;;;;;;;14.00;100.00;96967.81;5051807;28;20456;-73
2022/06/17 02:24:20;;;;;;;3.80;3.50;;;;;;;14.12;100.00;96983.78;5036978;28;20488;-73
2022/06/17 02:26:49;;;;;;;6.30;4.30;;;;;;;13.96;100.00;96979.44;5040284;28;20455;-73
2022/06/17 02:29:18;;;;;;;4.67;4.27;;;;;;;13.95;100.00;96970.72;5034843;28;20455;-73
2022/06/17 02:31:46;;;;;;;4.63;4.23;;;;;;;13.97;100.00;96997.72;5035055;28;20472;-73
2022/06/17 02:34:16;;;;;;;4.40;4.00;;;;;;;13.89;100.00;96993.31;5035635;28;20442;-73
2022/06/17 02:37:06;;;;;;;7.40;6.00;;;;;;;13.90;100.00;97005.50;5015327;28;20823;-73
2022/06/17 02:39:44;;;;;;;12.77;11.53;;;;;;;13.59;100.00;96963.44;5037845;28;20984;-73
2022/06/17 02:42:23;;;;;;;12.73;11.53;;;;;;;13.84;100.00;96996.94;5035082;28;20463;-73
2022/06/17 02:44:57;;;;;;;12.20;10.90;;;;;;;13.81;100.00;96986.97;5051395;28;20843;-73
2022/06/17 02:47:25;;;;;;;13.43;12.30;;;;;;;13.81;100.00;96991.50;5034900;28;20430;-73
2022/06/17 02:49:54;;;;;;;13.20;11.90;;;;;;;13.87;100.00;96996.28;5051238;28;20483;-73
2022/06/17 02:52:33;;;;;;;11.10;10.10;;;;;;;14.12;100.00;96993.63;5051103;28;20994;-73
2022/06/17 02:55:07;;;;;;;12.40;11.20;;;;;;;13.72;100.00;96954.41;5051095;28;20905;-73
2022/06/17 02:57:34;;;;;;;12.23;11.00;;;;;;;13.73;100.00;96979.09;5034771;28;20430;-73
2022/06/17 03:00:35;;;;;;;11.57;10.57;;;;;;;13.87;100.00;96990.19;5050909;28;20464;-73
2022/06/17 03:03:05;;;;;;;11.40;8.97;;;;;;;13.54;100.00;96955.69;5029255;28;20444;-73
2022/06/17 03:05:40;;;;;;;7.10;6.50;;;;;;;13.84;100.00;96994.28;5051132;28;20448;-74
2022/06/17 03:08:24;;;;;;;9.20;6.50;;;;;;;13.77;100.00;96990.63;5034508;28;20434;-73
2022/06/17 03:10:54;;;;;;;6.27;5.73;;;;;;;13.53;100.00;96988.69;5049751;28;20504;-73
2022/06/17 03:13:38;;;;;;;4.90;4.50;;;;;;;13.41;100.00;96996.63;5034234;28;20461;-73
2022/06/17 03:16:09;;;;;;;4.50;4.10;;;;;;;13.50;100.00;96987.47;5050841;28;20908;-73
2022/06/17 03:18:37;;;;;;;5.13;4.63;;;;;;;13.44;100.00;96988.00;5030814;28;20430;-73
2022/06/17 03:21:06;;;;;;;6.27;4.17;;;;;;;13.10;100.00;96987.19;5014419;28;20431;-73
2022/06/17 03:23:42;;;;;;;5.33;4.10;;;;;;;13.20;100.00;96996.66;5014527;28;20949;-73
2022/06/17 03:26:14;;;;;;;6.13;5.23;;;;;;;13.16;100.00;97001.03;5044003;28;21094;-73
2022/06/17 03:28:51;;;;;;;4.40;4.00;;;;;;;13.10;100.00;96983.78;5013506;28;20442;-74
2022/06/17 03:31:27;;;;;;;4.17;3.77;;;;;;;13.24;100.00;97013.50;5027497;28;20474;-73
2022/06/17 03:34:05;;;;;;;4.80;4.50;;;;;;;12.78;100.00;96962.16;5038300;28;20964;-73
2022/06/17 03:36:41;;;;;;;3.97;3.67;;;;;;;13.08;100.00;97007.19;5050511;28;20444;-73
2022/06/17 03:39:17;;;;;;;14.90;5.00;;;;;;;13.10;100.00;97008.44;5030741;28;21251;-73
2022/06/17 03:41:53;;;;;;;3.53;3.23;;;;;;;13.11;100.00;97020.63;5041586;28;20940;-73
2022/06/17 03:44:26;;;;;;;4.40;4.00;;;;;;;13.18;100.00;96993.53;5050073;28;20473;-74
2022/06/17 03:47:02;;;;;;;4.20;3.80;;;;;;;13.39;100.00;97028.06;5036329;28;20449;-74
2022/06/17 03:49:56;;;;;;;3.43;3.13;;;;;;;13.51;100.00;97028.09;5038642;28;20500;-74
2022/06/17 03:52:32;;;;;;;6.57;3.53;;;;;;;13.74;100.00;97044.44;5044819;28;20466;-74
2022/06/17 03:55:13;;;;;;;3.90;3.53;;;;;;;13.78;100.00;97034.72;5017012;28;20868;-74
2022/06/17 03:57:43;;;;;;;3.73;3.43;;;;;;;13.70;100.00;97016.97;5030247;28;20480;-74
2022/06/17 04:00:19;;;;;;;4.10;3.80;;;;;;;13.85;100.00;97043.69;5029898;28;20501;-73
2022/06/17 04:02:50;;;;;;;4.40;4.03;;;;;;;13.88;100.00;97051.00;5029998;28;20466;-73
2022/06/17 04:05:20;;;;;;;4.93;4.53;;;;;;;13.97;100.00;97042.94;5029829;28;20553;-73
2022/06/17 04:07:48;;;;;;;3.90;3.70;;;;;;;13.89;100.00;97049.13;5029786;28;20545;-73
2022/06/17 04:10:20;;;;;;;4.37;3.60;;;;;;;14.02;100.00;97050.72;5029715;28;20458;-73
2022/06/17 04:12:52;;;;;;;5.97;5.47;;;;;;;13.89;100.00;97049.91;5013731;28;20528;-73
2022/06/17 04:15:50;;;;;;;5.27;4.80;;;;;;;13.92;100.00;97037.84;5029903;28;20537;-74
2022/06/17 04:18:17;;;;;;;4.43;3.93;;;;;;;13.87;100.00;97038.03;5029753;28;20466;-73
2022/06/17 04:20:51;;;;;;;7.50;4.97;;;;;;;14.19;100.00;97065.69;5029543;28;20472;-73
2022/06/17 04:23:32;;;;;;;6.00;5.40;;;;;;;14.00;100.00;97052.13;5013364;28;20438;-73
2022/06/17 04:26:06;;;;;;;4.60;4.30;;;;;;;14.32;100.00;97067.25;5031246;28;20525;-74
2022/06/17 04:28:45;;;;;;;4.50;4.20;;;;;;;14.39;100.00;97056.03;5029544;28;20442;-74
2022/06/17 04:31:22;;;;;;;4.63;4.23;;;;;;;14.59;100.00;97068.50;5028569;28;20553;-74
2022/06/17 04:34:02;;;;;;;6.50;3.93;;;;;;;14.60;100.00;97051.44;5029442;28;20453;-74
2022/06/17 04:36:42;;;;;;;4.30;3.90;;;;;;;14.65;100.00;97075.16;5029846;28;20449;-74
2022/06/17 04:39:33;;;;;;;3.93;3.50;;;;;;;15.14;100.00;97076.97;5013033;28;20549;-74
2022/06/17 04:42:32;;;;;;;7.53;4.90;;;;;;;15.19;99.44;97080.16;5012831;28;20450;-74
2022/06/17 04:44:59;;;;;;;4.17;3.77;;;;;;;15.35;98.55;97081.00;5009853;28;20438;-74
2022/06/17 04:47:33;;;;;;;4.80;4.40;;;;;;;15.46;97.08;97083.97;5011877;28;20447;-74
2022/06/17 04:50:25;;;;;;;4.23;3.67;;;;;;;15.52;96.00;97063.19;5034698;28;20461;-74
2022/06/17 04:52:55;;;;;;;4.03;3.53;;;;;;;15.80;94.83;97084.53;5002660;28;20470;-74
2022/06/17 04:55:42;;;;;;;4.27;3.87;;;;;;;16.10;92.94;97085.69;4992042;28;20917;-74
2022/06/17 04:58:21;;;;;;;4.10;3.70;;;;;;;15.54;92.95;97052.97;4990358;28;20455;-73
2022/06/17 05:01:00;;;;;;;7.00;3.83;;;;;;;16.12;91.57;97069.34;5011542;28;20438;-74
2022/06/17 05:03:46;;;;;;;4.67;3.87;;;;;;;16.33;90.99;97077.88;5028226;28;21000;-74
2022/06/17 05:06:18;;;;;;;5.87;5.27;;;;;;;16.03;92.63;97061.53;4999162;28;21219;-74
2022/06/17 05:08:52;;;;;;;9.23;8.40;;;;;;;16.10;92.53;97069.69;4988907;28;21038;-73
2022/06/17 05:11:35;;;;;;;7.80;6.60;;;;;;;15.97;92.46;97076.22;4986455;28;20594;-74
2022/06/17 05:14:14;;;;;;;6.60;5.40;;;;;;;15.99;92.85;97084.66;4991902;28;20461;-74
2022/06/17 05:16:40;;;;;;;4.70;3.83;;;;;;;15.91;89.99;97062.38;4991956;28;20823;-74
2022/06/17 05:19:07;;;;;;;4.57;4.17;;;;;;;16.19;91.01;97099.66;4991704;28;20494;-74
2022/06/17 05:21:35;;;;;;;6.77;4.20;;;;;;;16.03;91.62;97074.09;4996674;28;20537;-74
2022/06/17 05:24:11;;;;;;;8.27;4.10;;;;;;;16.34;88.93;97078.66;4998158;28;20451;-74
2022/06/17 05:26:37;;;;;;;4.53;3.53;;;;;;;16.62;87.23;97079.31;5011386;28;20437;-74
2022/06/17 05:29:08;;;;;;;3.93;3.47;;;;;;;16.69;84.22;97079.50;5007195;28;20497;-73
2022/06/17 05:31:38;;;;;;;3.17;2.87;;;;;;;16.82;84.17;97096.19;5028944;28;20481;-74
2022/06/17 05:34:05;;;;;;;4.03;3.63;;;;;;;16.57;81.09;97082.25;5032624;28;20519;-74
2022/06/17 05:36:32;;;;;;;4.77;3.80;;;;;;;17.17;80.24;97103.44;5052760;28;20480;-74
2022/06/17 05:38:59;;;;;;;4.17;3.43;;;;;;;17.35;80.48;97110.72;5034398;28;20518;-74
2022/06/17 05:41:26;;;;;;;4.57;3.40;;;;;;;17.37;80.19;97113.06;5016398;28;20434;-74
2022/06/17 05:43:54;;;;;;;3.93;3.57;;;;;;;17.48;79.85;97099.88;5016504;28;20495;-74
2022/06/17 05:46:47;;;;;;;4.60;3.23;;;;;;;17.06;79.16;97108.56;5019519;28;20533;-74
2022/06/17 05:49:32;;;;;;;4.07;3.77;;;;;;;17.22;80.83;97111.97;5015483;28;20466;-74
2022/06/17 05:52:34;;;;;;;6.37;4.03;;;;;;;17.30;81.12;97107.56;5025450;28;20977;-74
2022/06/17 05:55:12;;;;;;;6.63;4.13;;;;;;;17.00;80.86;97072.56;5032378;28;20492;-74
2022/06/17 05:57:39;;;;;;;4.80;3.90;;;;;;;17.41;78.66;97112.00;5016229;28;20533;-74
2022/06/17 06:00:08;;;;;;;4.67;4.27;;;;;;;17.89;78.48;97127.84;5016128;28;20461;-74
2022/06/17 06:02:45;;;;;;;3.27;3.07;;;;;;;18.02;76.39;97147.97;5032345;28;20458;-74
2022/06/17 06:05:23;;;;;;;3.90;3.60;;;;;;;17.89;76.62;97139.31;5047390;28;20548;-74
2022/06/17 06:07:53;;;;;;;5.83;3.60;;;;;;;17.79;76.92;97120.41;5032408;28;20929;-74
2022/06/17 06:10:22;;;;;;;5.70;4.20;;;;;;;18.22;76.24;97156.75;5032156;28;20466;-74
2022/06/17 06:13:01;;;;;;;3.97;3.57;;;;;;;18.70;73.74;97154.56;5031918;28;20998;-74
2022/06/17 06:15:38;;;;;;;3.83;3.47;;;;;;;19.16;71.20;97150.66;5013113;28;20443;-74
2022/06/17 06:18:25;;;;;;;4.87;4.20;;;;;;;19.05;70.89;97151.63;5035854;28;20499;-72
2022/06/17 06:20:51;;;;;;;4.47;3.10;;;;;;;18.96;70.41;97157.22;5023256;28;20898;-72
2022/06/17 06:23:23;;;;;;;4.57;3.37;;;;;;;19.26;69.96;97153.84;5052149;28;20441;-73
2022/06/17 06:25:50;;;;;;;3.90;3.60;;;;;;;19.34;70.16;97172.34;5022302;28;20450;-72
2022/06/17 06:28:25;;;;;;;5.80;3.83;;;;;;;19.42;70.72;97149.84;5024942;28;20444;-72
2022/06/17 06:31:33;;;;;;;5.20;3.20;;;;;;;19.45;69.50;97165.22;5040880;28;20453;-72
2022/06/17 06:34:06;;;;;;;4.83;3.63;;;;;;;;;;5045300;28;20547;-72
2022/06/17 06:36:42;;;;;;;3.90;3.60;;;;;;;19.25;68.66;97158.44;5041306;28;20539;-72
2022/06/17 06:39:09;;;;;;;4.37;3.97;;;;;;;19.83;68.02;97158.06;5018770;28;20458;-72
2022/06/17 06:41:36;;;;;;;5.43;3.70;;;;;;;19.39;67.09;97158.63;5031599;28;20824;-72
2022/06/17 06:44:02;;;;;;;3.50;3.20;;;;;;;19.63;66.69;97173.56;5028335;28;20523;-73
2022/06/17 06:46:49;;;;;;;18.57;5.10;;;;;;;19.48;66.77;97164.50;5045940;28;20456;-72
2022/06/17 06:49:39;;;;;;;3.70;3.33;;;;;;;19.78;66.33;97191.38;5039203;28;21020;-73
2022/06/17 06:52:06;;;;;;;3.73;3.43;;;;;;;20.57;63.88;97192.25;5044760;28;20524;-72
2022/06/17 06:54:33;;;;;;;7.20;3.10;;;;;;;20.60;63.43;97165.41;5041227;28;20495;-72
2022/06/17 06:57:00;;;;;;;5.33;3.70;;;;;;;20.69;63.70;97172.38;5039073;28;20929;-72
2022/06/17 06:59:47;;;;;;;4.43;3.97;;;;;;;19.74;65.09;97189.75;5038614;28;20965;-72
2022/06/17 07:02:14;;;;;;;4.83;4.30;;;;;;;19.97;65.69;97181.59;5044682;28;20442;-72
2022/06/17 07:04:42;;;;;;;6.57;3.50;;;;;;;20.13;64.49;97195.59;5027793;28;21014;-72
2022/06/17 07:07:10;;;;;;;6.57;3.37;;;;;;;20.84;63.54;97190.94;5038115;28;20821;-73
2022/06/17 07:09:37;;;;;;;4.70;3.53;;;;;;;20.29;64.39;97190.00;5037661;28;20557;-73
2022/06/17 07:12:05;;;;;;;7.03;3.30;;;;;;;20.19;64.00;97169.19;5044396;28;20545;-72
2022/06/17 07:14:31;;;;;;;3.93;3.63;;;;;;;21.20;62.15;97194.66;5014746;28;20474;-72
2022/06/17 07:16:58;;;;;;;3.77;3.30;;;;;;;21.35;61.44;97202.84;5039934;28;21051;-72
2022/06/17 07:19:25;;;;;;;4.07;3.20;;;;;;;20.35;62.71;97167.06;5038976;28;20500;-72
2022/06/17 07:21:52;;;;;;;4.20;3.37;;;;;;;20.55;62.79;97197.97;5044579;28;20544;-72
2022/06/17 07:24:19;;;;;;;3.90;3.60;;;;;;;20.34;62.19;97184.31;5014326;28;20534;-73
2022/06/17 07:26:45;;;;;;;4.13;3.50;;;;;;;20.00;62.17;97146.75;5014391;28;20835;-74
2022/06/17 07:29:13;;;;;;;4.00;3.40;;;;;;;21.13;59.75;97170.41;5032163;28;20858;-72
2022/06/17 07:31:41;;;;;;;3.43;3.13;;;;;;;21.61;58.71;97180.31;5051871;28;20986;-72
2022/06/17 07:34:07;;;;;;;3.03;2.73;;;;;;;22.02;56.80;97180.88;5019139;28;20446;-72
2022/06/17 07:42:05;;;;;;;4.20;2.80;;;;;;;22.00;56.58;97200.09;5043957;28;20437;-72
2022/06/17 07:44:32;;;;;;;3.57;3.23;;;;;;;21.84;56.89;97207.75;5021215;28;20441;-72
2022/06/17 07:46:59;;;;;;;3.50;3.20;;;;;;;21.86;55.54;97204.66;5052331;28;20995;-72
2022/06/17 07:49:26;;;;;;;4.20;3.20;;;;;;;21.77;56.14;97218.50;5021874;28;20457;-72
2022/06/17 07:51:53;;;;;;;3.63;3.33;;;;;;;21.90;55.51;97213.53;5037216;28;21131;-73
2022/06/17 07:54:20;;;;;;;3.03;2.83;;;;;;;22.01;55.46;97203.56;5026532;28;20977;-72
2022/06/17 07:56:53;;;;;;;2.97;2.67;;;;;;;22.50;54.32;97213.75;5044298;28;20803;-74
2022/06/17 07:59:19;;;;;;;2.83;2.63;;;;;;;22.60;55.08;97218.41;5038854;28;20476;-72
2022/06/17 08:01:46;;;;;;;3.40;2.50;;;;;;;21.71;54.99;97201.91;5020521;28;20496;-73
2022/06/17 08:04:13;;;;;;;3.77;2.57;;;;;;;22.58;53.43;97211.88;5042820;28;20427;-72
2022/06/17 08:06:40;;;;;;;8.00;2.57;;;;;;;22.55;53.25;97193.72;5033622;28;20427;-72
2022/06/17 08:09:07;;;;;;;3.30;3.00;;;;;;;21.71;55.77;97220.00;5041242;28;20493;-72
2022/06/17 08:11:33;;;;;;;3.50;3.00;;;;;;;21.79;54.38;97225.03;5031414;28;20426;-72
2022/06/17 08:14:00;;;;;;;2.90;2.60;;;;;;;21.97;54.95;97214.34;5038850;28;20469;-73
2022/06/17 08:16:27;;;;;;;3.30;3.00;;;;;;;22.59;53.50;97235.75;5036482;28;20435;-72
2022/06/17 08:18:54;;;;;;;5.90;2.70;;;;;;;21.60;53.16;97195.69;5041067;28;20542;-72
2022/06/17 08:21:20;;;;;;;4.70;2.70;;;;;;;22.86;52.75;97236.19;5043776;28;20528;-72
2022/06/17 08:24:08;;;;;;;3.30;3.00;;;;;;;22.90;52.43;97236.94;5029992;28;20504;-72
2022/06/17 08:26:35;;;;;;;2.70;2.50;;;;;;;22.57;52.68;97221.06;5024661;28;20425;-72
2022/06/17 08:29:02;;;;;;;2.70;2.50;;;;;;;22.90;51.83;97238.88;5016745;28;20826;-74
2022/06/17 08:31:29;;;;;;;6.53;3.00;;;;;;;22.27;51.87;97214.09;5049696;28;20441;-74
2022/06/17 08:33:55;;;;;;;2.30;2.10;;;;;;;22.52;50.66;97216.06;5035979;28;20462;-73
2022/06/17 08:36:26;;;;;;;4.60;2.43;;;;;;;21.89;52.09;97212.00;5029621;28;20525;-74
2022/06/17 08:39:03;;;;;;;3.17;2.40;;;;;;;21.64;51.36;97236.88;5029669;28;20812;-74
2022/06/17 08:41:33;;;;;;;3.07;2.50;;;;;;;21.99;52.34;97219.34;5029665;28;20433;-74
2022/06/17 08:44:28;;;;;;;4.37;2.50;;;;;;;23.16;50.73;97230.41;5029990;28;20853;-74
2022/06/17 08:47:09;;;;;;;3.87;2.87;;;;;;;22.72;49.70;97203.78;5031004;28;20522;-74
2022/06/17 08:50:20;;;;;;;5.17;2.60;;;;;;;23.61;47.88;97236.16;5029566;28;20827;-74
2022/06/17 08:53:15;;;;;;;4.30;2.57;;;;;;;23.21;48.39;97240.03;5029476;28;20553;-74
2022/06/17 08:55:48;;;;;;;2.40;2.20;;;;;;;23.68;47.48;97241.56;5030861;28;20449;-74
2022/06/17 08:58:41;;;;;;;5.60;2.60;;;;;;;23.34;48.18;97237.72;5029515;28;20856;-74
2022/06/17 09:01:38;;;;;;;2.50;2.30;;;;;;;22.98;47.89;97225.03;5029575;28;20438;-74
2022/06/17 09:04:08;;;;;;;5.90;2.50;;;;;;;23.80;47.72;97243.06;5029642;28;20418;-74
2022/06/17 09:06:54;;;;;;;6.10;2.40;;;;;;;23.43;46.85;97243.50;5029323;28;20430;-74
2022/06/17 09:10:05;;;;;;;4.37;2.30;;;;;;;23.57;47.12;97246.97;5032401;28;20477;-74
2022/06/17 09:12:52;;;;;;;2.60;2.40;;;;;;;23.91;45.81;97246.50;5014948;28;20572;-74
2022/06/17 09:15:33;;;;;;;10.50;2.37;;;;;;;23.27;47.31;97235.81;5039399;28;20461;-74
2022/06/17 09:18:17;;;;;;;6.47;3.90;;;;;;;23.76;46.39;97228.78;5053528;28;20432;-74
2022/06/17 09:20:50;;;;;;;2.53;2.33;;;;;;;24.14;45.70;97233.28;5036662;28;20976;-74
2022/06/17 09:23:21;;;;;;;5.27;2.30;;;;;;;24.61;45.14;97216.84;5030597;28;20457;-74
2022/06/17 09:25:48;;;;;;;2.50;1.83;;;;;;;24.10;45.41;97229.81;5033525;28;20426;-74
2022/06/17 09:28:42;;;;;;;5.03;2.43;;;;;;;23.66;46.49;97224.19;5054464;28;20498;-74
2022/06/17 09:31:18;;;;;;;2.40;2.17;;;;;;;22.62;46.04;97221.47;5010922;28;20435;-74
2022/06/17 09:34:07;;;;;;;2.53;2.33;;;;;;;22.59;45.57;97218.78;5037515;28;20487;-74
2022/06/17 09:36:50;;;;;;;2.43;2.10;;;;;;;23.19;44.72;97209.97;5036378;28;20487;-74
2022/06/17 09:39:24;;;;;;;2.63;2.20;;;;;;;22.08;45.42;97223.28;5052743;28;20460;-74
2022/06/17 09:41:53;;;;;;;2.23;2.03;;;;;;;23.49;44.30;97223.03;5054221;28;20420;-74
2022/06/17 09:44:26;;;;;;;2.40;2.30;;;;;;;23.00;43.77;97195.72;5052646;28;20479;-74
2022/06/17 09:47:28;;;;;;;2.90;2.47;;;;;;;24.20;43.51;97203.91;5052704;28;20937;-74
2022/06/17 09:50:02;;;;;;;2.90;1.80;;;;;;;24.00;43.05;97214.41;5036142;28;20510;-74
2022/06/17 09:52:37;;;;;;;2.67;2.00;;;;;;;24.26;42.57;97215.06;5033135;28;20506;-74
2022/06/17 09:55:23;;;;;;;2.90;1.93;;;;;;;24.04;42.25;97188.16;5034088;28;20786;-74
2022/06/17 09:57:56;;;;;;;1.90;1.63;;;;;;;24.26;42.27;97205.03;5032678;28;20438;-74
2022/06/17 10:00:28;;;;;;;2.40;2.10;;;;;;;23.23;43.87;97202.63;5016284;28;20465;-74
2022/06/17 10:03:18;;;;;;;2.90;1.67;;;;;;;24.16;43.01;97201.22;5016329;28;20457;-74
2022/06/17 10:06:00;;;;;;;2.00;1.80;;;;;;;25.14;41.16;97211.06;5022543;28;20430;-74
2022/06/17 10:08:58;;;;;;;5.03;2.10;;;;;;;25.29;41.06;97211.69;5016199;28;20438;-74
2022/06/17 10:11:48;;;;;;;2.03;1.87;;;;;;;24.62;41.10;97216.44;5032449;28;20430;-74
2022/06/17 10:14:59;;;;;;;3.23;1.60;;;;;;;24.50;41.07;97211.50;5032416;28;20557;-74
2022/06/17 10:20:50;;;;;;;2.10;1.77;;;;;;;24.10;41.71;97208.22;5051399;28;20514;-74
2022/06/17 10:23:43;;;;;;;1.83;1.73;;;;;;;24.07;41.44;97206.28;5045959;28;20480;-74
2022/06/17 10:26:19;;;;;;;2.30;2.10;;;;;;;24.60;41.40;97199.09;5013834;28;20509;-74
2022/06/17 10:29:05;;;;;;;2.37;1.83;;;;;;;25.20;40.38;97204.03;5032065;28;20956;-74
2022/06/17 10:31:45;;;;;;;2.37;2.17;;;;;;;24.64;41.14;97189.00;5015682;28;20438;-74
2022/06/17 10:34:29;;;;;;;2.10;1.90;;;;;;;25.27;39.77;97198.56;5031916;28;20469;-74
2022/06/17 10:37:00;;;;;;;4.60;1.97;;;;;;;24.49;41.26;97182.91;5015648;28;20541;-74
2022/06/17 10:39:30;;;;;;;1.43;1.33;;;;;;;24.45;40.57;97193.78;5033118;28;20507;-74
2022/06/17 10:41:58;;;;;;;3.77;2.07;;;;;;;24.62;39.84;97181.28;5015587;28;20462;-74
2022/06/17 10:44:28;;;;;;;2.37;2.00;;;;;;;25.73;39.64;97186.50;5031718;28;20477;-74
2022/06/17 10:47:27;;;;;;;2.60;2.13;;;;;;;26.34;39.30;97175.66;5031823;28;20450;-74
2022/06/17 10:49:58;;;;;;;1.90;1.80;;;;;;;26.79;38.02;97187.00;5014965;28;20458;-74
2022/06/17 10:52:32;;;;;;;2.20;1.80;;;;;;;26.16;39.20;97192.16;5031680;28;20441;-74
2022/06/17 10:55:01;;;;;;;2.60;1.97;;;;;;;25.26;39.92;97185.44;5015232;28;20466;-74
2022/06/17 10:57:31;;;;;;;4.50;1.97;;;;;;;25.91;38.82;97170.81;5031847;28;20500;-74
2022/06/17 10:59:58;;;;;;;5.03;1.80;;;;;;;25.09;40.45;97183.63;5015061;28;20546;-74
2022/06/17 11:02:29;;;;;;;2.50;2.07;;;;;;;25.30;40.64;97170.69;5031528;28;20965;-74
2022/06/17 11:05:05;;;;;;;2.10;1.90;;;;;;;24.75;40.45;97187.00;5015553;28;20434;-74
2022/06/17 11:07:52;;;;;;;3.80;2.37;;;;;;;25.41;40.99;97194.19;5031579;28;20430;-74
2022/06/17 11:10:24;;;;;;;2.63;1.80;;;;;;;25.37;40.58;97180.66;5031539;28;20458;-74
2022/06/17 11:12:59;;;;;;;3.13;1.80;;;;;;;25.83;39.42;97190.25;5031397;28;20542;-74
2022/06/17 11:15:33;;;;;;;1.67;1.57;;;;;;;25.87;38.44;97174.72;5014916;28;20481;-74
2022/06/17 11:18:06;;;;;;;3.67;2.97;;;;;;;26.43;37.64;97173.22;5014916;28;20470;-74
2022/06/17 11:20:37;;;;;;;3.40;2.33;;;;;;;25.80;37.84;97189.13;5024095;28;20496;-74
2022/06/17 11:23:22;;;;;;;6.53;1.90;;;;;;;25.98;38.25;97190.84;5044384;28;20430;-74
2022/06/17 11:26:07;;;;;;;4.13;1.77;;;;;;;26.85;38.47;97186.56;5014598;28;20500;-74
2022/06/17 11:28:37;;;;;;;2.50;1.67;;;;;;;27.15;36.52;97193.84;5031514;28;20536;-74
2022/06/17 11:31:39;;;;;;;3.20;1.80;;;;;;;26.10;39.15;97171.34;5027536;28;20521;-74
2022/06/17 11:34:11;;;;;;;2.33;1.80;;;;;;;26.52;37.74;97180.84;5028957;28;20531;-74
2022/06/17 11:36:53;;;;;;;2.00;1.60;;;;;;;26.10;37.35;97122.53;5052404;28;20460;-74
2022/06/17 11:39:33;;;;;;;2.77;1.60;;;;;;;26.76;36.76;97178.94;5051011;28;20457;-74
2022/06/17 11:42:22;;;;;;;3.27;1.93;;;;;;;27.25;37.78;97177.38;5051213;28;20839;-74
2022/06/17 11:44:55;;;;;;;2.30;1.87;;;;;;;27.10;35.67;97127.94;5020905;28;20451;-74
2022/06/17 11:47:25;;;;;;;6.60;2.10;;;;;;;28.03;35.52;97180.53;5027367;28;20446;-74
2022/06/17 11:49:59;;;;;;;1.57;1.47;;;;;;;28.20;34.22;97184.06;5035753;28;20477;-75
2022/06/17 11:52:35;;;;;;;3.53;1.83;;;;;;;28.58;34.58;97162.66;5052502;28;20421;-76
2022/06/17 11:55:04;;;;;;;7.23;1.93;;;;;;;28.46;36.18;97174.97;5050723;28;20464;-76
2022/06/17 11:57:34;;;;;;;9.37;1.90;;;;;;;29.04;34.03;97177.13;5034149;28;20813;-75
2022/06/17 12:00:22;;;;;;;3.87;1.70;;;;;;;28.53;33.23;97152.25;5049183;28;20902;-75
2022/06/17 12:03:02;;;;;;;1.50;1.40;;;;;;;28.09;33.92;97172.66;5030869;28;20826;-75
2022/06/17 12:05:32;;;;;;;1.97;1.77;;;;;;;27.09;34.58;97169.09;5030970;28;20525;-74
2022/06/17 12:08:07;;;;;;;1.90;1.60;;;;;;;27.06;35.03;97167.97;5030558;28;20563;-74
2022/06/17 12:11:01;;;;;;;3.50;2.00;;;;;;;27.89;33.82;97167.22;5018394;28;20557;-74
2022/06/17 12:13:36;;;;;;;1.80;1.70;;;;;;;28.53;32.51;97166.63;5035001;28;20555;-74
2022/06/17 12:16:14;;;;;;;1.47;1.30;;;;;;;28.48;32.21;97161.69;5033654;28;20436;-74
2022/06/17 12:18:51;;;;;;;2.87;1.73;;;;;;;27.88;33.73;97157.53;5050139;28;20852;-74